Time;durP1;ratioP1;P1;durP2;ratioP2;P2;SDS_P1;SDS_P2;PMS_P1;PMS_P2;Temp;Humidity;BMP_temperature;BMP_pressure;BME280_temperature;BME280_humidity;BME280_pressure;Samples;Min_cycle;Max_cycle;Signal;HPM_P1;HPM_P2
2024/01/23 00:01:11;;;;;;;4.07;0.90;;;7.40;99.90;;;;;;5014053;28;20115;-75
2024/01/23 00:03:37;;;;;;;0.52;0.40;;;7.40;99.90;;;;;;5014938;28;20180;-75
2024/01/23 00:06:03;;;;;;;0.20;0.10;;;7.40;99.90;;;;;;5014568;28;20045;-75
2024/01/23 00:08:29;;;;;;;4.95;0.82;;;7.50;99.90;;;;;;4994992;28;20077;-76
2024/01/23 00:10:56;;;;;;;9.48;1.08;;;7.50;99.90;;;;;;5012986;28;20052;-75
2024/01/23 00:13:21;;;;;;;5.85;0.65;;;7.50;99.90;;;;;;5011874;28;20548;-75
2024/01/23 00:15:47;;;;;;;1.90;0.43;;;7.50;99.90;;;;;;5016999;28;20113;-75
2024/01/23 00:18:13;;;;;;;2.45;0.70;;;7.50;99.90;;;;;;5012144;28;20037;-76
2024/01/23 00:20:39;;;;;;;1.80;0.32;;;7.50;99.90;;;;;;5016750;28;20092;-76
2024/01/23 00:23:04;;;;;;;3.63;0.57;;;7.50;99.90;;;;;;5017489;28;20041;-74
2024/01/23 00:25:30;;;;;;;2.13;0.30;;;7.50;99.90;;;;;;5011149;28;20478;-75
2024/01/23 00:27:56;;;;;;;0.20;0.10;;;7.40;99.90;;;;;;4997777;28;20041;-75
2024/01/23 00:30:22;;;;;;;6.63;0.52;;;7.40;99.90;;;;;;5016666;28;20042;-75
2024/01/23 00:32:47;;;;;;;4.10;0.95;;;7.30;99.90;;;;;;5013738;28;20099;-76
2024/01/23 00:35:13;;;;;;;4.90;0.93;;;7.30;99.90;;;;;;5003539;28;20064;-76
2024/01/23 00:37:39;;;;;;;4.68;0.75;;;7.30;99.90;;;;;;5002716;28;20037;-76
2024/01/23 00:40:05;;;;;;;5.35;0.73;;;7.30;99.90;;;;;;4996893;28;20378;-76
2024/01/23 00:42:31;;;;;;;4.70;0.40;;;7.30;99.90;;;;;;5013240;28;20508;-76
2024/01/23 00:44:56;;;;;;;0.40;0.10;;;7.30;99.90;;;;;;5013591;28;20045;-76
2024/01/23 00:47:22;;;;;;;2.40;0.32;;;7.30;99.90;;;;;;5019404;28;20048;-75
2024/01/23 00:49:48;;;;;;;1.98;0.88;;;7.40;99.90;;;;;;5012432;28;20033;-75
2024/01/23 00:52:13;;;;;;;0.85;0.20;;;7.30;99.90;;;;;;5012302;28;20440;-76
2024/01/23 00:54:39;;;;;;;0.75;0.32;;;7.40;99.90;;;;;;5003814;28;20457;-73
2024/01/23 00:57:05;;;;;;;2.58;0.40;;;7.40;99.90;;;;;;5012431;28;20162;-76
2024/01/23 00:59:32;;;;;;;2.25;0.20;;;7.30;99.90;;;;;;5015390;28;20077;-76
2024/01/23 01:01:57;;;;;;;4.80;0.40;;;7.30;99.90;;;;;;5013459;28;20467;-76
2024/01/23 01:04:23;;;;;;;5.07;0.70;;;7.20;99.90;;;;;;5012644;28;20121;-76
2024/01/23 01:06:49;;;;;;;5.82;0.43;;;7.20;99.90;;;;;;5003045;28;20054;-76
2024/01/23 01:09:14;;;;;;;0.30;0.10;;;7.20;99.90;;;;;;5011898;28;20087;-76
2024/01/23 01:11:40;;;;;;;0.65;0.22;;;7.20;99.90;;;;;;5015166;28;20556;-76
2024/01/23 01:14:06;;;;;;;15.65;1.00;;;7.20;99.90;;;;;;5009921;28;20037;-76
2024/01/23 01:16:32;;;;;;;8.07;0.93;;;7.20;99.90;;;;;;5016163;28;20049;-75
2024/01/23 01:18:58;;;;;;;6.40;0.40;;;7.20;99.90;;;;;;5012058;28;20041;-76
2024/01/23 01:21:24;;;;;;;1.65;0.57;;;7.20;99.90;;;;;;5011481;28;20535;-76
2024/01/23 01:23:50;;;;;;;3.67;1.08;;;7.10;99.90;;;;;;5000883;28;20033;-75
2024/01/23 01:26:15;;;;;;;7.30;0.52;;;7.20;99.90;;;;;;5011475;28;20052;-76
2024/01/23 01:28:41;;;;;;;2.38;0.25;;;7.20;99.90;;;;;;5012873;28;20489;-76
2024/01/23 01:31:07;;;;;;;2.38;1.33;;;7.20;99.90;;;;;;5001210;28;20116;-76
2024/01/23 01:33:33;;;;;;;3.15;0.70;;;7.20;99.90;;;;;;5017145;28;20036;-76
2024/01/23 01:35:58;;;;;;;5.47;0.52;;;7.10;99.90;;;;;;5012188;28;20037;-76
2024/01/23 01:38:24;;;;;;;7.53;0.73;;;7.10;99.90;;;;;;5007259;28;20037;-76
2024/01/23 01:40:50;;;;;;;2.33;0.95;;;7.20;99.90;;;;;;5011690;28;20133;-75
2024/01/23 01:43:30;;;;;;;2.67;0.77;;;7.20;99.90;;;;;;5011691;28;20124;-76
2024/01/23 01:46:09;;;;;;;7.07;0.47;;;7.20;99.90;;;;;;5012371;28;20045;-76
2024/01/23 01:48:35;;;;;;;6.43;0.88;;;7.20;99.90;;;;;;5011065;28;20043;-75
2024/01/23 01:51:01;;;;;;;3.67;0.50;;;7.20;99.90;;;;;;5009689;28;21374;-76
2024/01/23 01:53:27;;;;;;;9.07;0.47;;;7.20;99.90;;;;;;5010500;28;20103;-76
2024/01/23 01:55:53;;;;;;;1.17;0.30;;;7.10;99.90;;;;;;5029116;28;20144;-76
2024/01/23 01:58:22;;;;;;;5.22;0.60;;;7.00;99.90;;;;;;5011475;28;20141;-75
2024/01/23 02:00:50;;;;;;;1.45;0.25;;;7.00;99.90;;;;;;5011788;28;20041;-75
2024/01/23 02:03:17;;;;;;;7.47;2.03;;;6.90;99.90;;;;;;5010989;28;20128;-75
2024/01/23 02:05:43;;;;;;;4.50;0.90;;;6.90;99.90;;;;;;5011136;28;20045;-75
2024/01/23 02:08:09;;;;;;;3.83;0.95;;;6.90;99.90;;;;;;5014058;28;20089;-75
2024/01/23 02:10:35;;;;;;;3.95;1.15;;;6.90;99.90;;;;;;5008190;28;20045;-75
2024/01/23 02:13:01;;;;;;;3.97;0.35;;;6.80;99.90;;;;;;5016568;28;20048;-75
2024/01/23 02:15:26;;;;;;;0.28;0.10;;;6.80;99.90;;;;;;5010549;28;20422;-76
2024/01/23 02:17:52;;;;;;;7.60;0.80;;;6.80;99.90;;;;;;5007943;28;20038;-75
2024/01/23 02:20:18;;;;;;;3.10;0.35;;;6.80;99.90;;;;;;5018713;28;20056;-76
2024/01/23 02:22:43;;;;;;;2.55;0.30;;;6.80;99.90;;;;;;5010284;28;20141;-76
2024/01/23 02:25:09;;;;;;;6.85;0.77;;;6.80;99.90;;;;;;5010032;28;20056;-75
2024/01/23 02:27:35;;;;;;;1.48;0.98;;;6.70;99.90;;;;;;5011027;28;20120;-76
2024/01/23 02:30:00;;;;;;;0.50;0.28;;;6.70;99.90;;;;;;5009990;28;21285;-75
2024/01/23 02:32:26;;;;;;;4.45;0.93;;;6.70;99.90;;;;;;5011033;28;20029;-76
2024/01/23 02:34:52;;;;;;;1.40;0.52;;;6.60;99.90;;;;;;4998446;28;21246;-76
2024/01/23 02:37:17;;;;;;;1.08;0.38;;;6.60;99.90;;;;;;5011359;28;20041;-76
2024/01/23 02:39:43;;;;;;;4.75;0.40;;;6.60;99.90;;;;;;5007670;28;20045;-76
2024/01/23 02:42:10;;;;;;;3.75;0.57;;;6.60;99.90;;;;;;4993781;28;20045;-76
2024/01/23 02:44:36;;;;;;;2.05;0.40;;;6.50;99.90;;;;;;5004903;28;20493;-76
2024/01/23 02:47:01;;;;;;;3.13;0.55;;;6.60;99.90;;;;;;5027564;28;20053;-76
2024/01/23 02:49:27;;;;;;;2.13;0.45;;;6.50;99.90;;;;;;5009266;28;20042;-75
2024/01/23 02:51:53;;;;;;;9.23;1.85;;;6.50;99.90;;;;;;4994020;28;20041;-76
2024/01/23 02:54:19;;;;;;;2.85;0.38;;;6.50;99.90;;;;;;5006724;28;20036;-75
2024/01/23 02:56:44;;;;;;;1.98;0.13;;;6.50;99.90;;;;;;5011423;28;20039;-76
2024/01/23 02:59:10;;;;;;;3.83;0.32;;;6.50;99.90;;;;;;5010227;28;20034;-76
2024/01/23 03:01:36;;;;;;;3.58;0.52;;;6.50;99.90;;;;;;4995214;28;20044;-76
2024/01/23 03:04:01;;;;;;;5.38;0.57;;;6.50;99.90;;;;;;5009789;28;20480;-76
2024/01/23 03:06:27;;;;;;;1.63;0.57;;;6.50;99.90;;;;;;5010444;28;20153;-76
2024/01/23 03:08:53;;;;;;;4.03;0.47;;;6.50;99.90;;;;;;5001464;28;20084;-77
2024/01/23 03:11:18;;;;;;;5.05;0.65;;;6.50;99.90;;;;;;5018788;28;20060;-76
2024/01/23 03:13:44;;;;;;;3.15;1.35;;;6.60;99.90;;;;;;4999549;28;20048;-75
2024/01/23 03:16:10;;;;;;;0.63;0.10;;;6.60;99.90;;;;;;5018856;28;20421;-76
2024/01/23 03:18:35;;;;;;;2.42;0.75;;;6.60;99.90;;;;;;5010484;28;20037;-76
2024/01/23 03:21:02;;;;;;;1.33;0.20;;;6.70;99.90;;;;;;5016805;28;20503;-76
2024/01/23 03:23:27;;;;;;;3.28;0.73;;;6.70;99.90;;;;;;5012440;28;20045;-76
2024/01/23 03:25:53;;;;;;;2.58;0.68;;;6.80;99.90;;;;;;5012449;28;20382;-76
2024/01/23 03:28:19;;;;;;;3.92;1.17;;;6.80;99.90;;;;;;4995079;28;20057;-76
2024/01/23 03:30:44;;;;;;;7.15;1.75;;;6.80;99.90;;;;;;5013884;28;20462;-76
2024/01/23 03:33:11;;;;;;;5.70;0.45;;;6.80;99.90;;;;;;5009987;28;20029;-76
2024/01/23 03:35:37;;;;;;;0.32;0.20;;;6.90;99.90;;;;;;5014564;28;20405;-76
2024/01/23 03:38:04;;;;;;;2.65;1.45;;;6.90;99.90;;;;;;5000675;28;20067;-76
2024/01/23 03:40:30;;;;;;;0.68;0.10;;;6.80;99.90;;;;;;5015715;28;20106;-76
2024/01/23 03:42:56;;;;;;;2.35;0.77;;;6.80;99.90;;;;;;5018558;28;20033;-76
2024/01/23 03:45:21;;;;;;;3.30;0.32;;;6.90;99.90;;;;;;5019818;28;20405;-75
2024/01/23 03:47:47;;;;;;;7.30;1.00;;;7.00;99.90;;;;;;5017076;28;20405;-76
2024/01/23 03:50:13;;;;;;;0.08;0.08;;;7.00;99.90;;;;;;5013999;28;20124;-76
2024/01/23 03:52:38;;;;;;;3.40;1.08;;;7.00;99.90;;;;;;5012936;28;20101;-75
2024/01/23 03:55:04;;;;;;;9.05;0.68;;;7.00;99.90;;;;;;5014434;28;20044;-76
2024/01/23 03:57:30;;;;;;;8.10;1.38;;;7.00;99.90;;;;;;5001499;28;20478;-75
2024/01/23 03:59:56;;;;;;;2.88;1.15;;;7.10;99.90;;;;;;5014454;28;20072;-75
2024/01/23 04:02:25;;;;;;;6.03;0.63;;;7.10;99.90;;;;;;5013345;28;20103;-76
2024/01/23 04:04:51;;;;;;;0.45;0.40;;;7.10;99.90;;;;;;5006777;28;20038;-75
2024/01/23 04:07:17;;;;;;;13.98;1.25;;;7.10;99.90;;;;;;5012104;28;20080;-76
2024/01/23 04:09:42;;;;;;;3.67;1.13;;;7.20;99.90;;;;;;5012558;28;20497;-76
2024/01/23 04:12:08;;;;;;;1.98;0.47;;;7.10;99.90;;;;;;5012531;28;20037;-76
2024/01/23 04:14:34;;;;;;;4.80;0.77;;;7.10;99.90;;;;;;5013673;28;20447;-76
2024/01/23 04:16:59;;;;;;;6.05;0.73;;;7.20;99.90;;;;;;5012889;28;20489;-76
2024/01/23 04:19:25;;;;;;;4.35;0.55;;;7.20;99.90;;;;;;4998271;28;20120;-76
2024/01/23 04:21:51;;;;;;;6.57;0.60;;;7.20;99.90;;;;;;5012148;28;20041;-75
2024/01/23 04:24:17;;;;;;;4.32;0.50;;;7.20;99.90;;;;;;5013165;28;20315;-76
2024/01/23 04:26:49;;;;;;;4.45;0.63;;;7.20;99.90;;;;;;5022337;28;20051;-76
2024/01/23 04:29:15;;;;;;;1.20;0.17;;;7.30;99.90;;;;;;4997543;28;20809;-76
2024/01/23 04:31:41;;;;;;;1.45;0.65;;;7.30;99.90;;;;;;4995151;28;20164;-75
2024/01/23 04:34:06;;;;;;;2.85;0.47;;;7.30;99.90;;;;;;4995503;28;20087;-76
2024/01/23 04:36:32;;;;;;;5.70;1.33;;;7.30;99.90;;;;;;5013444;28;20041;-75
2024/01/23 04:38:58;;;;;;;1.75;0.50;;;7.40;99.90;;;;;;5012090;28;20065;-76
2024/01/23 04:41:24;;;;;;;9.82;2.25;;;7.30;99.90;;;;;;5011356;28;20584;-76
2024/01/23 04:43:50;;;;;;;5.30;1.00;;;7.30;99.90;;;;;;5017339;28;20103;-75
2024/01/23 04:46:16;;;;;;;2.50;0.57;;;7.40;99.90;;;;;;5009248;28;20076;-76
2024/01/23 04:48:42;;;;;;;2.03;0.95;;;7.30;99.90;;;;;;5011812;28;20048;-75
2024/01/23 04:51:08;;;;;;;8.23;0.75;;;7.30;99.90;;;;;;5009619;28;20052;-75
2024/01/23 04:53:33;;;;;;;6.18;0.85;;;7.30;99.90;;;;;;5012162;28;20033;-77
2024/01/23 04:55:59;;;;;;;7.28;1.48;;;7.30;99.90;;;;;;5010904;28;20042;-76
2024/01/23 04:58:25;;;;;;;4.20;0.57;;;7.30;99.90;;;;;;5012348;28;20033;-76
2024/01/23 05:00:51;;;;;;;7.90;0.65;;;7.30;99.90;;;;;;5010117;28;20375;-76
2024/01/23 05:03:17;;;;;;;7.13;0.85;;;7.20;99.90;;;;;;5012430;28;20428;-76
2024/01/23 05:05:43;;;;;;;1.92;0.40;;;7.30;99.90;;;;;;5011482;28;20130;-76
2024/01/23 05:08:08;;;;;;;2.72;0.73;;;7.30;99.90;;;;;;4993370;28;20060;-76
2024/01/23 05:10:34;;;;;;;5.07;1.08;;;7.40;99.90;;;;;;4993150;28;20041;-76
2024/01/23 05:13:00;;;;;;;3.38;0.70;;;7.40;99.90;;;;;;5011050;28;20094;-75
2024/01/23 05:15:26;;;;;;;8.55;1.33;;;7.40;99.90;;;;;;5010773;28;20038;-75
2024/01/23 05:17:52;;;;;;;8.13;2.15;;;7.40;99.90;;;;;;5011837;28;20489;-76
2024/01/23 05:20:18;;;;;;;10.02;1.35;;;7.50;99.90;;;;;;5008602;28;20048;-76
2024/01/23 05:22:43;;;;;;;9.98;0.50;;;7.50;99.90;;;;;;5010326;28;20683;-75
2024/01/23 05:25:09;;;;;;;2.38;0.75;;;7.50;99.90;;;;;;5011388;28;20095;-77
2024/01/23 05:27:36;;;;;;;3.55;0.57;;;7.50;99.90;;;;;;5007397;28;20046;-74
2024/01/23 05:30:05;;;;;;;1.60;0.45;;;7.50;99.90;;;;;;5011702;28;20389;-77
2024/01/23 05:32:30;;;;;;;2.95;0.45;;;7.40;99.90;;;;;;5013725;28;20119;-76
2024/01/23 05:34:56;;;;;;;4.45;1.13;;;7.40;99.90;;;;;;5012054;28;20041;-77
2024/01/23 05:37:22;;;;;;;11.25;1.02;;;7.40;99.90;;;;;;5010636;28;20033;-76
2024/01/23 05:39:47;;;;;;;15.55;1.67;;;7.40;99.90;;;;;;5009083;28;20485;-76
2024/01/23 05:42:13;;;;;;;4.07;0.57;;;7.40;99.90;;;;;;5012192;28;20042;-76
2024/01/23 05:44:42;;;;;;;4.82;0.93;;;7.40;99.90;;;;;;5010996;28;20051;-76
2024/01/23 05:47:07;;;;;;;7.47;0.95;;;7.40;99.90;;;;;;5007488;28;20048;-76
2024/01/23 05:49:33;;;;;;;14.05;1.33;;;7.40;99.90;;;;;;5016768;28;20029;-76
2024/01/23 05:51:59;;;;;;;1.17;0.50;;;7.50;99.90;;;;;;5012006;28;20073;-77
2024/01/23 05:54:24;;;;;;;4.38;0.75;;;7.40;99.90;;;;;;5011245;28;20553;-76
2024/01/23 05:56:50;;;;;;;2.38;0.52;;;7.50;99.90;;;;;;4995830;28;20049;-76
2024/01/23 05:59:16;;;;;;;6.22;0.65;;;7.50;99.90;;;;;;5017926;28;20048;-76
2024/01/23 06:01:42;;;;;;;5.57;0.98;;;7.50;99.90;;;;;;5010706;28;20041;-76
2024/01/23 06:04:09;;;;;;;6.65;0.93;;;7.50;99.90;;;;;;5011011;28;20042;-77
2024/01/23 06:06:41;;;;;;;2.05;0.60;;;7.50;99.90;;;;;;5011396;28;20110;-76
2024/01/23 06:09:09;;;;;;;4.88;0.45;;;7.50;99.90;;;;;;5010136;28;20041;-76
2024/01/23 06:11:35;;;;;;;7.60;0.77;;;7.50;99.90;;;;;;5009784;28;20192;-76
2024/01/23 06:14:00;;;;;;;2.90;1.13;;;7.50;99.90;;;;;;5010660;28;20110;-76
2024/01/23 06:16:26;;;;;;;6.95;1.13;;;7.60;99.90;;;;;;5011837;28;20068;-75
2024/01/23 06:18:52;;;;;;;2.30;0.32;;;7.50;99.90;;;;;;5011224;28;20485;-76
2024/01/23 06:21:18;;;;;;;9.63;1.08;;;7.50;99.90;;;;;;5011685;28;20037;-76
2024/01/23 06:23:44;;;;;;;4.93;1.45;;;7.50;99.90;;;;;;4999753;28;20038;-76
2024/01/23 06:26:10;;;;;;;2.58;0.55;;;7.50;99.90;;;;;;4994841;28;20143;-76
2024/01/23 06:28:35;;;;;;;8.65;1.65;;;7.50;99.90;;;;;;5000803;28;20060;-76
2024/01/23 06:31:01;;;;;;;5.32;1.02;;;7.50;99.90;;;;;;5010794;28;20090;-75
2024/01/23 06:33:27;;;;;;;3.35;0.77;;;7.50;99.90;;;;;;5009698;28;20030;-76
2024/01/23 06:35:52;;;;;;;5.95;0.73;;;7.50;99.90;;;;;;4999085;28;20064;-76
2024/01/23 06:38:18;;;;;;;7.53;1.27;;;7.50;99.90;;;;;;4991340;28;20030;-76
2024/01/23 06:40:44;;;;;;;4.20;0.40;;;7.50;99.90;;;;;;5010216;28;20448;-76
2024/01/23 06:43:10;;;;;;;3.33;1.42;;;7.40;99.90;;;;;;4998632;28;20037;-76
2024/01/23 06:45:36;;;;;;;2.13;0.88;;;7.40;99.90;;;;;;4994110;28;20034;-76
2024/01/23 06:48:02;;;;;;;9.60;2.58;;;7.40;99.90;;;;;;5014931;28;20466;-75
2024/01/23 06:50:31;;;;;;;7.68;1.92;;;7.40;99.90;;;;;;5010237;28;20053;-76
2024/01/23 06:52:57;;;;;;;6.30;0.80;;;7.30;99.90;;;;;;5011188;28;20060;-77
2024/01/23 06:55:22;;;;;;;4.75;1.05;;;7.30;99.90;;;;;;4997708;28;20378;-76
2024/01/23 06:57:48;;;;;;;14.63;1.27;;;7.30;99.90;;;;;;4997904;28;20096;-76
2024/01/23 07:00:14;;;;;;;7.70;1.58;;;7.30;99.90;;;;;;5015098;28;20486;-75
2024/01/23 07:02:40;;;;;;;8.55;1.13;;;7.30;99.90;;;;;;5011408;28;20041;-75
2024/01/23 07:05:06;;;;;;;1.88;0.93;;;7.20;99.90;;;;;;5014158;28;20047;-75
2024/01/23 07:07:31;;;;;;;15.45;0.85;;;7.20;99.90;;;;;;5015344;28;20067;-75
2024/01/23 07:09:57;;;;;;;3.17;0.77;;;7.20;99.90;;;;;;5012051;28;20053;-75
2024/01/23 07:12:23;;;;;;;6.20;0.65;;;7.10;99.90;;;;;;4994716;28;20120;-75
2024/01/23 07:14:48;;;;;;;5.25;0.65;;;7.10;99.90;;;;;;5015654;28;20041;-75
2024/01/23 07:17:15;;;;;;;5.25;2.15;;;7.10;99.90;;;;;;5021369;28;20046;-75
2024/01/23 07:19:41;;;;;;;8.30;0.80;;;7.00;99.90;;;;;;5014227;28;20037;-75
2024/01/23 07:22:07;;;;;;;5.05;1.00;;;7.00;99.90;;;;;;5014365;28;20064;-75
2024/01/23 07:24:32;;;;;;;2.53;0.50;;;7.00;99.90;;;;;;5030109;28;20030;-76
2024/01/23 07:26:58;;;;;;;3.13;0.85;;;7.00;99.90;;;;;;5011996;28;20044;-76
2024/01/23 07:29:24;;;;;;;10.98;1.02;;;7.00;99.90;;;;;;5013979;28;20514;-76
2024/01/23 07:31:49;;;;;;;10.75;1.20;;;6.90;99.90;;;;;;5013009;28;20036;-75
2024/01/23 07:34:15;;;;;;;4.18;0.85;;;6.90;99.90;;;;;;5015323;28;20537;-75
2024/01/23 07:36:41;;;;;;;7.38;1.67;;;6.80;99.90;;;;;;5013403;28;20029;-75
2024/01/23 07:39:07;;;;;;;14.88;1.58;;;6.80;99.90;;;;;;5015181;28;20261;-75
2024/01/23 07:41:33;;;;;;;10.30;1.08;;;6.80;99.90;;;;;;5015481;28;20407;-76
2024/01/23 07:43:59;;;;;;;5.85;1.10;;;6.70;99.90;;;;;;5010131;28;20056;-75
2024/01/23 07:46:26;;;;;;;6.20;1.85;;;6.80;99.90;;;;;;5013358;28;20122;-76
2024/01/23 07:48:52;;;;;;;7.13;1.20;;;6.70;99.90;;;;;;5012763;28;20079;-76
2024/01/23 07:51:18;;;;;;;3.72;0.65;;;6.70;99.90;;;;;;5014238;28;20117;-75
2024/01/23 07:53:44;;;;;;;12.38;1.40;;;6.60;99.90;;;;;;5012147;28;20116;-75
2024/01/23 07:56:09;;;;;;;5.35;0.52;;;6.60;99.90;;;;;;5013878;28;20134;-75
2024/01/23 07:58:35;;;;;;;7.90;0.95;;;6.60;99.90;;;;;;5012850;28;20442;-76
2024/01/23 08:01:01;;;;;;;5.03;1.45;;;6.60;99.90;;;;;;5013044;28;20524;-76
2024/01/23 08:03:26;;;;;;;5.10;0.77;;;6.60;99.90;;;;;;5012721;28;20045;-75
2024/01/23 08:05:52;;;;;;;17.90;0.40;;;6.60;99.90;;;;;;5012277;28;20037;-76
2024/01/23 08:08:20;;;;;;;3.03;0.70;;;6.60;99.90;;;;;;5010471;28;20116;-76
2024/01/23 08:10:47;;;;;;;7.03;0.82;;;6.60;99.90;;;;;;5009981;28;20064;-76
2024/01/23 08:13:13;;;;;;;4.95;1.02;;;6.60;99.90;;;;;;5010776;28;20037;-76
2024/01/23 08:15:39;;;;;;;3.67;1.48;;;6.70;99.90;;;;;;5013370;28;20378;-76
2024/01/23 08:18:06;;;;;;;7.80;1.05;;;6.80;99.90;;;;;;5008793;28;20045;-76
2024/01/23 08:20:32;;;;;;;3.20;1.00;;;6.90;99.90;;;;;;5014022;28;20045;-76
2024/01/23 08:22:57;;;;;;;10.60;0.85;;;7.00;99.90;;;;;;5010483;28;20136;-76
2024/01/23 08:25:23;;;;;;;6.75;0.43;;;7.00;99.90;;;;;;4998828;28;20507;-76
2024/01/23 08:27:49;;;;;;;9.60;2.25;;;7.00;99.90;;;;;;5015614;28;20457;-76
2024/01/23 08:30:15;;;;;;;1.75;0.70;;;7.10;99.90;;;;;;5011833;28;20417;-76
2024/01/23 08:32:41;;;;;;;4.75;0.60;;;7.10;99.90;;;;;;4998986;28;20374;-76
2024/01/23 08:35:07;;;;;;;9.77;1.67;;;7.20;99.90;;;;;;5011115;28;20096;-76
2024/01/23 08:37:33;;;;;;;12.60;0.95;;;7.30;99.90;;;;;;5017261;28;20157;-76
2024/01/23 08:39:59;;;;;;;4.38;0.57;;;7.30;99.90;;;;;;5001661;28;20528;-76
2024/01/23 08:42:24;;;;;;;15.05;1.80;;;7.30;99.90;;;;;;5003043;28;20048;-76
2024/01/23 08:44:50;;;;;;;2.72;0.85;;;7.40;99.90;;;;;;4997569;28;20045;-73
2024/01/23 08:47:16;;;;;;;3.92;0.43;;;7.40;99.90;;;;;;4994801;28;20067;-76
2024/01/23 08:49:42;;;;;;;1.75;0.32;;;7.40;99.90;;;;;;5011678;28;20045;-76
2024/01/23 08:52:08;;;;;;;5.97;1.05;;;7.60;99.90;;;;;;5012082;28;20072;-77
2024/01/23 08:54:36;;;;;;;8.15;0.63;;;7.70;99.90;;;;;;5007321;28;20072;-76
2024/01/23 08:57:02;;;;;;;2.25;0.65;;;7.90;99.90;;;;;;4994506;28;20054;-76
2024/01/23 08:59:28;;;;;;;7.00;1.30;;;8.20;99.90;;;;;;4998377;28;20213;-76
2024/01/23 09:01:54;;;;;;;4.80;0.98;;;8.30;99.90;;;;;;5016843;28;20509;-76
2024/01/23 09:04:21;;;;;;;9.82;1.05;;;8.30;99.90;;;;;;4993821;28;20076;-76
2024/01/23 09:06:47;;;;;;;4.18;0.90;;;8.40;99.90;;;;;;5011518;28;20508;-76
2024/01/23 09:09:13;;;;;;;7.32;0.73;;;8.60;99.90;;;;;;5010721;28;20052;-76
2024/01/23 09:11:39;;;;;;;2.22;0.57;;;8.90;99.90;;;;;;5011834;28;20124;-76
2024/01/23 09:14:05;;;;;;;10.02;2.10;;;8.80;99.90;;;;;;5011307;28;20156;-76
2024/01/23 09:16:30;;;;;;;7.32;0.93;;;8.70;99.90;;;;;;5017776;28;20525;-76
2024/01/23 09:18:56;;;;;;;1.85;0.77;;;8.60;99.90;;;;;;4996909;28;20067;-76
2024/01/23 09:21:23;;;;;;;4.78;0.82;;;8.70;99.90;;;;;;5023278;28;20044;-76
2024/01/23 09:23:49;;;;;;;3.45;0.70;;;8.80;99.90;;;;;;5008347;28;20041;-76
2024/01/23 09:26:14;;;;;;;6.68;1.45;;;8.90;99.90;;;;;;5012569;28;20052;-77
2024/01/23 09:28:40;;;;;;;4.22;0.45;;;8.80;99.90;;;;;;5003564;28;20037;-76
2024/01/23 09:31:06;;;;;;;6.13;0.63;;;8.70;99.90;;;;;;5012002;28;20048;-76
2024/01/23 09:33:32;;;;;;;7.28;0.77;;;8.60;99.90;;;;;;5011804;28;20038;-77
2024/01/23 09:35:57;;;;;;;6.28;0.93;;;8.50;99.90;;;;;;5011868;28;20041;-76
2024/01/23 09:38:23;;;;;;;3.35;0.68;;;8.40;99.90;;;;;;5011071;28;20041;-77
2024/01/23 09:40:52;;;;;;;2.90;0.80;;;8.40;99.90;;;;;;5010743;28;20042;-77
2024/01/23 09:43:21;;;;;;;2.67;0.95;;;8.30;99.90;;;;;;5012500;28;20392;-77
2024/01/23 09:45:50;;;;;;;9.75;1.55;;;8.30;99.90;;;;;;5016041;28;20069;-77
2024/01/23 09:48:16;;;;;;;2.97;1.05;;;8.30;99.90;;;;;;5021957;28;20033;-77
2024/01/23 09:50:45;;;;;;;7.57;0.95;;;8.20;99.90;;;;;;5001015;28;20077;-77
2024/01/23 09:53:12;;;;;;;5.82;0.82;;;8.20;99.90;;;;;;5016237;28;20046;-77
2024/01/23 09:55:38;;;;;;;7.53;1.23;;;8.50;99.90;;;;;;5011632;28;20036;-77
2024/01/23 09:58:06;;;;;;;3.38;1.27;;;9.00;99.90;;;;;;5012163;28;20069;-77
2024/01/23 10:00:32;;;;;;;2.92;0.68;;;9.30;99.90;;;;;;5009597;28;20041;-77
2024/01/23 10:02:58;;;;;;;3.85;1.13;;;9.30;99.90;;;;;;5010771;28;20530;-75
2024/01/23 10:05:24;;;;;;;9.60;1.58;;;9.20;99.90;;;;;;5011247;28;20041;-76
2024/01/23 10:07:49;;;;;;;3.63;0.80;;;9.30;99.90;;;;;;5010269;28;20053;-77
2024/01/23 10:10:17;;;;;;;8.32;1.08;;;9.70;99.90;;;;;;5000898;28;20041;-77
2024/01/23 10:12:47;;;;;;;9.70;0.50;;;9.80;99.90;;;;;;5027310;28;20069;-72
2024/01/23 10:15:22;;;;;;;7.10;1.33;;;9.70;99.90;;;;;;4996013;28;20489;-76
2024/01/23 10:17:49;;;;;;;8.88;1.20;;;9.50;99.90;;;;;;4995007;28;20095;-76
2024/01/23 10:20:16;;;;;;;2.25;0.35;;;9.40;99.90;;;;;;5020333;28;20087;-76
2024/01/23 10:22:44;;;;;;;3.20;0.38;;;9.20;99.90;;;;;;5009992;28;20453;-76
2024/01/23 10:25:11;;;;;;;4.93;0.80;;;9.20;99.90;;;;;;5011586;28;20338;-76
2024/01/23 10:27:37;;;;;;;5.03;1.58;;;9.10;99.90;;;;;;5011767;28;20425;-76
2024/01/23 10:30:03;;;;;;;4.20;0.68;;;9.10;99.90;;;;;;5009103;28;20045;-76
2024/01/23 10:32:30;;;;;;;6.30;1.30;;;9.10;99.90;;;;;;5010410;28;20041;-76
2024/01/23 10:34:56;;;;;;;9.48;2.30;;;9.00;99.90;;;;;;5010775;28;20038;-76
2024/01/23 10:37:22;;;;;;;3.70;0.80;;;9.00;99.90;;;;;;4993821;28;20037;-76
2024/01/23 10:39:51;;;;;;;12.48;1.00;;;8.90;99.90;;;;;;5017694;28;20116;-76
2024/01/23 10:42:20;;;;;;;1.75;0.73;;;8.90;99.90;;;;;;5009224;28;20033;-77
2024/01/23 10:44:50;;;;;;;2.70;0.70;;;8.90;99.90;;;;;;5011144;28;20029;-77
2024/01/23 10:47:19;;;;;;;4.00;1.20;;;8.80;99.90;;;;;;5009619;28;20033;-77
2024/01/23 10:49:46;;;;;;;2.25;0.43;;;8.90;99.90;;;;;;5010634;28;20036;-77
2024/01/23 10:52:17;;;;;;;9.80;2.35;;;8.90;99.90;;;;;;5010349;28;20068;-75
2024/01/23 10:54:47;;;;;;;8.63;2.05;;;8.90;99.90;;;;;;5010213;28;20064;-76
2024/01/23 10:57:22;;;;;;;3.60;0.65;;;8.80;99.90;;;;;;4993480;28;20076;-76
2024/01/23 10:59:48;;;;;;;2.55;0.47;;;8.80;99.90;;;;;;5010325;28;20349;-76
2024/01/23 11:02:36;;;;;;;1.90;0.88;;;8.80;99.90;;;;;;4997548;28;20040;-77
2024/01/23 11:05:02;;;;;;;3.83;0.40;;;8.80;99.90;;;;;;5010113;28;20041;-75
2024/01/23 11:07:36;;;;;;;6.60;0.98;;;8.90;99.90;;;;;;5015239;28;20056;-76
2024/01/23 11:10:26;;;;;;;8.73;1.30;;;8.90;99.90;;;;;;5005766;28;20481;-76
2024/01/23 11:13:26;;;;;;;10.52;1.15;;;9.00;99.90;;;;;;5010621;28;20052;-76
2024/01/23 11:15:52;;;;;;;2.70;0.93;;;9.00;99.90;;;;;;5010051;28;20124;-77
2024/01/23 11:18:28;;;;;;;2.28;0.68;;;9.00;99.90;;;;;;5011025;28;20128;-77
2024/01/23 11:21:09;;;;;;;3.67;0.70;;;9.00;99.90;;;;;;5026826;28;20107;-75
2024/01/23 11:23:37;;;;;;;6.93;0.90;;;9.00;99.90;;;;;;5008688;28;20047;-76
2024/01/23 11:26:04;;;;;;;3.65;1.00;;;9.10;99.90;;;;;;5008946;28;20125;-76
2024/01/23 11:28:35;;;;;;;6.78;1.20;;;9.10;99.90;;;;;;5010262;28;20595;-76
2024/01/23 11:31:09;;;;;;;10.65;0.70;;;9.10;99.90;;;;;;4995851;28;20053;-76
2024/01/23 11:33:35;;;;;;;14.02;1.30;;;9.10;99.90;;;;;;5013724;28;20068;-76
2024/01/23 11:36:14;;;;;;;9.25;1.15;;;9.20;99.90;;;;;;5027026;28;20041;-76
2024/01/23 11:38:48;;;;;;;2.97;0.70;;;9.20;99.90;;;;;;5000405;28;20422;-76
2024/01/23 11:41:22;;;;;;;7.45;0.85;;;9.20;99.90;;;;;;5009090;28;20056;-76
2024/01/23 11:43:49;;;;;;;6.13;1.17;;;9.20;99.90;;;;;;5011452;28;20041;-76
2024/01/23 11:46:18;;;;;;;6.65;0.98;;;9.20;99.90;;;;;;4998130;28;20515;-76
2024/01/23 11:48:44;;;;;;;7.28;1.08;;;9.10;99.90;;;;;;5013449;28;20448;-74
2024/01/23 11:51:14;;;;;;;5.28;1.30;;;9.00;99.90;;;;;;5013712;28;20485;-76
2024/01/23 11:53:41;;;;;;;5.25;0.55;;;9.00;99.90;;;;;;4996240;28;20041;-76
2024/01/23 11:56:09;;;;;;;7.05;1.17;;;9.00;99.90;;;;;;5015962;28;20069;-76
2024/01/23 11:58:35;;;;;;;9.05;1.25;;;9.00;99.90;;;;;;5010638;28;20042;-76
2024/01/23 12:01:02;;;;;;;2.00;0.57;;;9.00;99.90;;;;;;5008816;28;20520;-77
2024/01/23 12:03:28;;;;;;;6.47;1.23;;;9.10;99.90;;;;;;4999433;28;20056;-76
2024/01/23 12:05:55;;;;;;;3.15;1.20;;;9.10;99.90;;;;;;5013482;28;20041;-77
2024/01/23 12:08:23;;;;;;;10.00;1.50;;;9.10;99.90;;;;;;5010735;28;20136;-76
2024/01/23 12:10:49;;;;;;;4.43;0.98;;;9.10;99.90;;;;;;5011194;28;20053;-78
2024/01/23 12:13:15;;;;;;;3.60;0.90;;;9.00;99.90;;;;;;5015175;28;20449;-77
2024/01/23 12:15:41;;;;;;;3.30;0.77;;;8.90;99.90;;;;;;5014269;28;20032;-76
2024/01/23 12:18:13;;;;;;;13.65;1.48;;;8.90;99.90;;;;;;4998503;28;20029;-76
2024/01/23 12:20:42;;;;;;;8.13;1.35;;;8.90;99.90;;;;;;5012556;28;20055;-77
2024/01/23 12:23:08;;;;;;;4.50;1.02;;;9.00;99.90;;;;;;4996788;28;20131;-77
2024/01/23 12:25:34;;;;;;;3.70;1.70;;;9.00;99.90;;;;;;5002708;28;20124;-77
2024/01/23 12:28:00;;;;;;;4.13;0.70;;;9.00;99.90;;;;;;5013179;28;20103;-78
2024/01/23 12:30:26;;;;;;;5.32;0.68;;;9.10;99.90;;;;;;5012928;28;20145;-77
2024/01/23 12:32:52;;;;;;;2.67;1.25;;;9.10;99.90;;;;;;5013058;28;20374;-77
2024/01/23 12:35:17;;;;;;;11.57;0.93;;;9.10;99.90;;;;;;4999087;28;20033;-75
2024/01/23 12:37:43;;;;;;;6.32;0.43;;;9.00;99.90;;;;;;5010786;28;20046;-77
2024/01/23 12:40:10;;;;;;;8.93;0.57;;;9.00;99.90;;;;;;5011579;28;20041;-76
2024/01/23 12:42:46;;;;;;;10.43;1.95;;;9.00;99.90;;;;;;5020640;28;20285;-76
2024/01/23 12:45:14;;;;;;;5.68;1.40;;;9.00;99.90;;;;;;5012508;28;20315;-75
2024/01/23 12:47:43;;;;;;;5.38;1.55;;;8.90;99.90;;;;;;5011474;28;20090;-77
2024/01/23 12:50:21;;;;;;;3.45;1.08;;;8.90;99.90;;;;;;5011188;28;20049;-77
2024/01/23 12:52:54;;;;;;;8.43;1.17;;;8.90;99.90;;;;;;5009576;28;20111;-76